Time;durP1;ratioP1;P1;durP2;ratioP2;P2;SDS_P1;SDS_P2;PMS_P1;PMS_P2;Temp;Humidity;BMP_temperature;BMP_pressure;BME280_temperature;BME280_humidity;BME280_pressure;Samples;Min_cycle;Max_cycle;Signal;HPM_P1;HPM_P2
2023/05/06 00:01:06;;;;;;;;;;;;;;;;;;5041805;27;89055;-60
2023/05/06 00:03:33;;;;;;;;;;;;;;;;;;5040810;27;89138;-59
2023/05/06 00:05:58;;;;;;;;;;;;;;;;;;5040628;27;89230;-61
2023/05/06 00:08:23;;;;;;;;;;;;;;;;;;5035653;27;89585;-59
2023/05/06 00:10:48;;;;;;;;;;;;;;;;;;5041177;27;89364;-58
2023/05/06 00:13:13;;;;;;;;;;;;;;;;;;5031520;27;89767;-60
2023/05/06 00:15:39;;;;;;;;;;;;;;;;;;5040966;27;90367;-59
2023/05/06 00:18:04;;;;;;;;;;;;;;;;;;5034304;27;89931;-63
2023/05/06 00:20:30;;;;;;;;;;;;;;;;;;5028951;27;89023;-61
2023/05/06 00:22:55;;;;;;;;;;;;;;;;;;5047035;27;89171;-60
2023/05/06 00:25:20;;;;;;;;;;;;;;;;;;5034600;27;89570;-63
2023/05/06 00:27:46;;;;;;;;;;;;;;;;;;5034790;27;90082;-59
2023/05/06 00:30:11;;;;;;;;;;;;;;;;;;5038510;27;89657;-61
2023/05/06 00:32:37;;;;;;;;;;;;;;;;;;5038712;27;89063;-59
2023/05/06 00:35:02;;;;;;;;;;;;;;;;;;5032820;27;89451;-60
2023/05/06 00:37:27;;;;;;;;;;;;;;;;;;5036026;27;91898;-58
2023/05/06 00:39:53;;;;;;;;;;;;;;;;;;5026210;27;90263;-60
2023/05/06 00:42:18;;;;;;;;;;;;;;;;;;5027363;27;89006;-59
2023/05/06 00:44:43;;;;;;;;;;;;;;;;;;5025904;27;89673;-59
2023/05/06 00:47:09;;;;;;;;;;;;;;;;;;5023086;27;89503;-60
2023/05/06 00:49:34;;;;;;;;;;;;;;;;;;5029093;27;91831;-61
2023/05/06 00:52:00;;;;;;;;;;;;;;;;;;5022874;27;89167;-62
2023/05/06 00:54:25;;;;;;;;;;;;;;;;;;5034360;27;90573;-59
2023/05/06 00:56:51;;;;;;;;;;;;;;;;;;5031040;27;90371;-61
2023/05/06 00:59:16;;;;;;;;;;;;;;;;;;5019176;27;89075;-62
2023/05/06 01:01:42;;;;;;;;;;;;;;;;;;5030009;27;90054;-60
2023/05/06 01:04:07;;;;;;;;;;;;;;;;;;5027076;27;91031;-60
2023/05/06 01:06:53;;;;;;;;;;;;;;;;;;5033375;27;89805;-58
2023/05/06 01:09:28;;;;;;;;;;;;;;;;;;5016509;27;89265;-60
2023/05/06 01:11:57;;;;;;;;;;;;;;;;;;5025526;27;89070;-58
2023/05/06 01:14:40;;;;;;;;;;;;;;;;;;5024639;27;90702;-59
2023/05/06 01:17:07;;;;;;;;;;;;;;;;;;5030312;27;89290;-60
2023/05/06 01:19:38;;;;;;;;;;;;;;;;;;5026874;27;89854;-60
2023/05/06 01:22:04;;;;;;;;;;;;;;;;;;5022962;27;90721;-63
2023/05/06 01:24:36;;;;;;;;;;;;;;;;;;5024574;27;89697;-60
2023/05/06 01:27:01;;;;;;;;;;;;;;;;;;5037808;27;89561;-61
2023/05/06 01:29:26;;;;;;;;;;;;;;;;;;5021647;27;89568;-59
2023/05/06 01:31:55;;;;;;;;;;;;;;;;;;5022946;27;89232;-59
2023/05/06 01:34:26;;;;;;;;;;;;;;;;;;5027288;27;90121;-61
2023/05/06 01:37:02;;;;;;;;;;;;;;;;;;5034154;27;90140;-59
2023/05/06 01:39:29;;;;;;;;;;;;;;;;;;5023890;27;90028;-59
2023/05/06 01:41:56;;;;;;;;;;;;;;;;;;5028027;27;89812;-59
2023/05/06 01:44:22;;;;;;;;;;;;;;;;;;5026279;27;90286;-58
2023/05/06 01:46:48;;;;;;;;;;;;;;;;;;5020436;27;90557;-60
2023/05/06 01:49:14;;;;;;;;;;;;;;;;;;5025862;27;90290;-62
2023/05/06 01:51:40;;;;;;;;;;;;;;;;;;5024626;27;89583;-60
2023/05/06 01:54:05;;;;;;;;;;;;;;;;;;5022588;27;89955;-64
2023/05/06 01:56:30;;;;;;;;;;;;;;;;;;5026224;27;89450;-62
2023/05/06 01:58:56;;;;;;;;;;;;;;;;;;5031040;27;90249;-59
2023/05/06 02:01:22;;;;;;;;;;;;;;;;;;5022121;27;90495;-59
2023/05/06 02:03:47;;;;;;;;;;;;;;;;;;5019187;27;90114;-59
2023/05/06 02:06:12;;;;;;;;;;;;;;;;;;5031665;27;89047;-61
2023/05/06 02:08:38;;;;;;;;;;;;;;;;;;5020030;27;92230;-61
2023/05/06 02:11:03;;;;;;;;;;;;;;;;;;5023966;27;89874;-61
2023/05/06 02:13:28;;;;;;;;;;;;;;;;;;5025778;27;89390;-59
2023/05/06 02:15:53;;;;;;;;;;;;;;;;;;5022285;27;89538;-60
2023/05/06 02:18:18;;;;;;;;;;;;;;;;;;5021094;27;89155;-58
2023/05/06 02:20:44;;;;;;;;;;;;;;;;;;5031789;27;90457;-59
2023/05/06 02:23:09;;;;;;;;;;;;;;;;;;5026308;27;89384;-61
2023/05/06 02:25:34;;;;;;;;;;;;;;;;;;5023017;27;89086;-60
2023/05/06 02:27:59;;;;;;;;;;;;;;;;;;5023919;27;89268;-59
2023/05/06 02:30:25;;;;;;;;;;;;;;;;;;5027890;27;89750;-60
2023/05/06 02:32:50;;;;;;;;;;;;;;;;;;5021845;27;89460;-59
2023/05/06 02:35:15;;;;;;;;;;;;;;;;;;5021878;27;89694;-61
2023/05/06 02:37:40;;;;;;;;;;;;;;;;;;5032462;27;89654;-59
2023/05/06 02:40:06;;;;;;;;;;;;;;;;;;5031456;27;89578;-61
2023/05/06 02:42:33;;;;;;;;;;;;;;;;;;5030774;27;89338;-59
2023/05/06 02:44:58;;;;;;;;;;;;;;;;;;5028580;27;90126;-60
2023/05/06 02:47:23;;;;;;;;;;;;;;;;;;5023104;27;89840;-60
2023/05/06 02:49:48;;;;;;;;;;;;;;;;;;5031884;27;91551;-59
2023/05/06 02:52:13;;;;;;;;;;;;;;;;;;5026856;27;89179;-59
2023/05/06 02:54:39;;;;;;;;;;;;;;;;;;5021040;27;89918;-59
2023/05/06 02:57:04;;;;;;;;;;;;;;;;;;5022280;27;89714;-61
2023/05/06 02:59:29;;;;;;;;;;;;;;;;;;5027751;27;89684;-62
2023/05/06 03:01:55;;;;;;;;;;;;;;;;;;5029818;27;90810;-61
2023/05/06 03:04:21;;;;;;;;;;;;;;;;;;5017666;27;89576;-61
2023/05/06 03:06:46;;;;;;;;;;;;;;;;;;5027526;27;90582;-59
2023/05/06 03:09:11;;;;;;;;;;;;;;;;;;5030457;27;89126;-62
2023/05/06 03:11:36;;;;;;;;;;;;;;;;;;5028391;27;89548;-60
2023/05/06 03:14:02;;;;;;;;;;;;;;;;;;5025115;27;89546;-60
2023/05/06 03:16:27;;;;;;;;;;;;;;;;;;5026638;27;91140;-60
2023/05/06 03:18:52;;;;;;;;;;;;;;;;;;5032590;27;90634;-59
2023/05/06 03:21:17;;;;;;;;;;;;;;;;;;5030541;27;90082;-61
2023/05/06 03:23:42;;;;;;;;;;;;;;;;;;5025828;27;91044;-59
2023/05/06 03:26:08;;;;;;;;;;;;;;;;;;5020930;27;90215;-59
2023/05/06 03:28:33;;;;;;;;;;;;;;;;;;5026821;27;89680;-60
2023/05/06 03:30:58;;;;;;;;;;;;;;;;;;5023764;27;89831;-62
2023/05/06 03:33:23;;;;;;;;;;;;;;;;;;5018821;27;90518;-62
2023/05/06 03:35:49;;;;;;;;;;;;;;;;;;5027655;27;90178;-61
2023/05/06 03:38:14;;;;;;;;;;;;;;;;;;5039682;27;89664;-62
2023/05/06 03:40:39;;;;;;;;;;;;;;;;;;5033305;27;89967;-61
2023/05/06 03:43:04;;;;;;;;;;;;;;;;;;5024799;27;89735;-61
2023/05/06 03:45:30;;;;;;;;;;;;;;;;;;5025007;27;90416;-58
2023/05/06 03:47:55;;;;;;;;;;;;;;;;;;5020620;27;89210;-60
2023/05/06 03:50:20;;;;;;;;;;;;;;;;;;5030743;27;89622;-60
2023/05/06 03:52:46;;;;;;;;;;;;;;;;;;5022148;27;89367;-58
2023/05/06 03:55:11;;;;;;;;;;;;;;;;;;5023595;27;89729;-59
2023/05/06 03:57:36;;;;;;;;;;;;;;;;;;5023164;27;89481;-60
2023/05/06 04:00:01;;;;;;;;;;;;;;;;;;5025516;27;89135;-60
2023/05/06 04:02:28;;;;;;;;;;;;;;;;;;5023591;27;89443;-59
2023/05/06 04:04:53;;;;;;;;;;;;;;;;;;5025029;27;90790;-59
2023/05/06 04:07:18;;;;;;;;;;;;;;;;;;5014474;27;90709;-62
2023/05/06 04:09:43;;;;;;;;;;;;;;;;;;5032951;27;89104;-62
2023/05/06 04:12:09;;;;;;;;;;;;;;;;;;5024942;27;90923;-62
2023/05/06 04:14:34;;;;;;;;;;;;;;;;;;5019631;27;89937;-59
2023/05/06 04:16:59;;;;;;;;;;;;;;;;;;5029922;27;90520;-59
2023/05/06 04:19:25;;;;;;;;;;;;;;;;;;5027292;27;90202;-58
2023/05/06 04:21:51;;;;;;;;;;;;;;;;;;5020328;27;89445;-59
2023/05/06 04:24:16;;;;;;;;;;;;;;;;;;5017856;27;89531;-59
2023/05/06 04:26:41;;;;;;;;;;;;;;;;;;5026878;27;89341;-58
2023/05/06 04:29:07;;;;;;;;;;;;;;;;;;5027734;27;90101;-60
2023/05/06 04:31:33;;;;;;;;;;;;;;;;;;5025489;27;89864;-60
2023/05/06 04:33:59;;;;;;;;;;;;;;;;;;5027500;27;90213;-62
2023/05/06 04:36:25;;;;;;;;;;;;;;;;;;5025754;27;89150;-59
2023/05/06 04:38:51;;;;;;;;;;;;;;;;;;5029800;27;90513;-59
2023/05/06 04:41:16;;;;;;;;;;;;;;;;;;5029475;27;89522;-62
2023/05/06 04:43:42;;;;;;;;;;;;;;;;;;5028443;27;90739;-63
2023/05/06 04:46:07;;;;;;;;;;;;;;;;;;5023675;27;90440;-61
2023/05/06 04:48:32;;;;;;;;;;;;;;;;;;5024935;27;90095;-61
2023/05/06 04:50:58;;;;;;;;;;;;;;;;;;5027102;27;89431;-59
2023/05/06 04:53:23;;;;;;;;;;;;;;;;;;5027091;27;89556;-58
2023/05/06 04:55:48;;;;;;;;;;;;;;;;;;5021805;27;89547;-59
2023/05/06 04:58:13;;;;;;;;;;;;;;;;;;5027793;27;89509;-58
2023/05/06 05:00:39;;;;;;;;;;;;;;;;;;5032352;27;90465;-59
2023/05/06 05:03:04;;;;;;;;;;;;;;;;;;5025295;27;90513;-62
2023/05/06 05:05:29;;;;;;;;;;;;;;;;;;5019466;27;89802;-61
2023/05/06 05:07:54;;;;;;;;;;;;;;;;;;5038053;27;89461;-60
2023/05/06 05:10:20;;;;;;;;;;;;;;;;;;5030924;27;89397;-61
2023/05/06 05:12:45;;;;;;;;;;;;;;;;;;5029447;27;90228;-60
2023/05/06 05:15:10;;;;;;;;;;;;;;;;;;5017380;27;89664;-60
2023/05/06 05:17:36;;;;;;;;;;;;;;;;;;5024931;27;90450;-61
2023/05/06 05:20:02;;;;;;;;;;;;;;;;;;5023980;27;89398;-59
2023/05/06 05:22:27;;;;;;;;;;;;;;;;;;5028439;27;89392;-60
2023/05/06 05:24:52;;;;;;;;;;;;;;;;;;5025147;27;89903;-60
2023/05/06 05:27:17;;;;;;;;;;;;;;;;;;5020241;27;89598;-61
2023/05/06 05:29:42;;;;;;;;;;;;;;;;;;5024816;27;90730;-60
2023/05/06 05:32:08;;;;;;;;;;;;;;;;;;5030536;27;89559;-60
2023/05/06 05:34:33;;;;;;;;;;;;;;;;;;5030170;27;89648;-60
2023/05/06 05:36:58;;;;;;;;;;;;;;;;;;5036805;27;89757;-58
2023/05/06 05:39:24;;;;;;;;;;;;;;;;;;5022091;27;89500;-60
2023/05/06 05:41:49;;;;;;;;;;;;;;;;;;5030119;27;89491;-60
2023/05/06 05:44:14;;;;;;;;;;;;;;;;;;5027286;27;90244;-59
2023/05/06 05:46:40;;;;;;;;;;;;;;;;;;5021996;27;90472;-61
2023/05/06 05:49:05;;;;;;;;;;;;;;;;;;5021629;27;90393;-59
2023/05/06 05:51:30;;;;;;;;;;;;;;;;;;5028783;27;89168;-63
2023/05/06 05:53:56;;;;;;;;;;;;;;;;;;5021009;27;89488;-60
2023/05/06 05:56:21;;;;;;;;;;;;;;;;;;5026413;27;90473;-60
2023/05/06 05:58:46;;;;;;;;;;;;;;;;;;5023080;27;89965;-60
2023/05/06 06:01:12;;;;;;;;;;;;;;;;;;5022957;27;89482;-60
2023/05/06 06:03:37;;;;;;;;;;;;;;;;;;5023701;27;91584;-60
2023/05/06 06:06:03;;;;;;;;;;;;;;;;;;5033266;27;89675;-59
2023/05/06 06:08:28;;;;;;;;;;;;;;;;;;5029547;27;92406;-59
2023/05/06 06:10:54;;;;;;;;;;;;;;;;;;5033736;27;89608;-60
2023/05/06 06:13:19;;;;;;;;;;;;;;;;;;5020235;27;89057;-60
2023/05/06 06:15:45;;;;;;;;;;;;;;;;;;5025640;27;89988;-59
2023/05/06 06:18:10;;;;;;;;;;;;;;;;;;5031779;27;90616;-60
2023/05/06 06:20:35;;;;;;;;;;;;;;;;;;5023780;27;89422;-59
2023/05/06 06:23:01;;;;;;;;;;;;;;;;;;5016169;27;89523;-61
2023/05/06 06:25:26;;;;;;;;;;;;;;;;;;5028797;27;90206;-60
2023/05/06 06:27:53;;;;;;;;;;;;;;;;;;5035956;27;89667;-60
2023/05/06 06:30:18;;;;;;;;;;;;;;;;;;5025141;27;89800;-59
2023/05/06 06:32:48;;;;;;;;;;;;;;;;;;5028155;27;89088;-60
2023/05/06 06:35:13;;;;;;;;;;;;;;;;;;5017965;27;90905;-59
2023/05/06 06:37:38;;;;;;;;;;;;;;;;;;5029489;27;89548;-59
2023/05/06 06:40:04;;;;;;;;;;;;;;;;;;5026524;27;89410;-59
2023/05/06 06:42:29;;;;;;;;;;;;;;;;;;5020317;27;89147;-59
2023/05/06 06:44:54;;;;;;;;;;;;;;;;;;5027843;27;89143;-59
2023/05/06 06:47:20;;;;;;;;;;;;;;;;;;5023300;27;89890;-59
2023/05/06 06:49:45;;;;;;;;;;;;;;;;;;5022205;27;89811;-59
2023/05/06 06:52:10;;;;;;;;;;;;;;;;;;5023540;27;89184;-62
2023/05/06 06:54:36;;;;;;;;;;;;;;;;;;5037696;27;91098;-60
2023/05/06 06:57:02;;;;;;;;;;;;;;;;;;5020910;27;89746;-60
2023/05/06 06:59:27;;;;;;;;;;;;;;;;;;5031970;27;89655;-59
2023/05/06 07:01:52;;;;;;;;;;;;;;;;;;5017445;27;90958;-60
2023/05/06 07:04:18;;;;;;;;;;;;;;;;;;5025616;27;89820;-61
2023/05/06 07:06:43;;;;;;;;;;;;;;;;;;5022318;27;89771;-59
2023/05/06 07:09:08;;;;;;;;;;;;;;;;;;5023061;27;89513;-60
2023/05/06 07:11:34;;;;;;;;;;;;;;;;;;4970327;27;89655;-61
2023/05/06 07:13:59;;;;;;;;;;;;;;;;;;5002924;28;89607;-60
2023/05/06 07:16:24;;;;;;;;;;;;;;;;;;4986637;28;90568;-61
2023/05/06 07:18:52;;;;;;;;;;;;;;;;;;4988983;28;89132;-61
2023/05/06 07:21:18;;;;;;;;;;;;;;;;;;4986988;28;90791;-61
2023/05/06 07:23:43;;;;;;;;;;;;;;;;;;4985546;28;89667;-61
2023/05/06 07:26:08;;;;;;;;;;;;;;;;;;4984866;28;89059;-62
2023/05/06 07:28:33;;;;;;;;;;;;;;;;;;4987611;28;89666;-61
2023/05/06 07:30:59;;;;;;;;;;;;;;;;;;4983191;28;90468;-62
2023/05/06 07:33:24;;;;;;;;;;;;;;;;;;4987662;28;90644;-61
2023/05/06 07:35:51;;;;;;;;;;;;;;;;;;4994138;28;90003;-60
2023/05/06 07:38:16;;;;;;;;;;;;;;;;;;4986133;28;89893;-60
2023/05/06 07:40:41;;;;;;;;;;;;;;;;;;4987829;28;89626;-62
2023/05/06 07:43:07;;;;;;;;;;;;;;;;;;4985030;28;90131;-59
2023/05/06 07:45:32;;;;;;;;;;;;;;;;;;4989520;28;90074;-60
2023/05/06 07:47:57;;;;;;;;;;;;;;;;;;4989139;28;89788;-60
2023/05/06 07:50:22;;;;;;;;;;;;;;;;;;4984746;28;89561;-59
2023/05/06 07:52:48;;;;;;;;;;;;;;;;;;4989685;28;89106;-59
2023/05/06 07:55:13;;;;;;;;;;;;;;;;;;4983930;28;89915;-61
2023/05/06 07:57:38;;;;;;;;;;;;;;;;;;4986767;28;89070;-61
2023/05/06 08:00:04;;;;;;;;;;;;;;;;;;4982888;28;90326;-60
2023/05/06 08:02:30;;;;;;;;;;;;;;;;;;4982090;28;89618;-61
2023/05/06 08:04:56;;;;;;;;;;;;;;;;;;4989829;28;90392;-59
2023/05/06 08:07:21;;;;;;;;;;;;;;;;;;4990403;28;89538;-61
2023/05/06 08:09:46;;;;;;;;;;;;;;;;;;4989506;28;91041;-62
2023/05/06 08:12:11;;;;;;;;;;;;;;;;;;4991058;28;89090;-59
2023/05/06 08:14:37;;;;;;;;;;;;;;;;;;4991910;28;89544;-61
2023/05/06 08:17:02;;;;;;;;;;;;;;;;;;4938686;27;90267;-62
2023/05/06 08:19:28;;;;;;;;;;;;;;;;;;4988044;28;90030;-62
2023/05/06 08:21:53;;;;;;;;;;;;;;;;;;4989985;28;89272;-60
2023/05/06 08:24:19;;;;;;;;;;;;;;;;;;4988868;28;89129;-60
2023/05/06 08:26:44;;;;;;;;;;;;;;;;;;4990611;28;89594;-59
2023/05/06 08:29:09;;;;;;;;;;;;;;;;;;4991069;28;90875;-62
2023/05/06 08:31:34;;;;;;;;;;;;;;;;;;4989866;28;90177;-59
2023/05/06 08:34:00;;;;;;;;;;;;;;;;;;4989423;28;91118;-59
2023/05/06 08:36:25;;;;;;;;;;;;;;;;;;4990498;28;90704;-60
2023/05/06 08:38:50;;;;;;;;;;;;;;;;;;4988103;28;89592;-61
2023/05/06 08:41:22;;;;;;;;;;;;;;;;;;4990287;28;90016;-58
2023/05/06 08:43:49;;;;;;;;;;;;;;;;;;4988466;28;91685;-59
2023/05/06 08:46:15;;;;;;;;;;;;;;;;;;4993567;28;90688;-59
2023/05/06 08:48:40;;;;;;;;;;;;;;;;;;4992237;28;89803;-59
2023/05/06 08:51:06;;;;;;;;;;;;;;;;;;4986003;28;90342;-61
2023/05/06 08:53:32;;;;;;;;;;;;;;;;;;5003614;28;90777;-61
2023/05/06 08:56:05;;;;;;;;;;;;;;;;;;4986396;28;90073;-59
2023/05/06 08:58:34;;;;;;;;;;;;;;;;;;4983435;28;89690;-61
2023/05/06 09:01:00;;;;;;;;;;;;;;;;;;4983000;28;90101;-61
2023/05/06 09:03:25;;;;;;;;;;;;;;;;;;4984502;28;90341;-60
2023/05/06 09:05:50;;;;;;;;;;;;;;;;;;4981904;28;89831;-59
2023/05/06 09:08:16;;;;;;;;;;;;;;;;;;4982612;28;91470;-62
2023/05/06 09:10:45;;;;;;;;;;;;;;;;;;4983989;28;89116;-59
2023/05/06 09:13:13;;;;;;;;;;;;;;;;;;4988474;28;90720;-60
2023/05/06 09:15:46;;;;;;;;;;;;;;;;;;4986388;28;89751;-59
2023/05/06 09:18:12;;;;;;;;;;;;;;;;;;4990918;28;89197;-59
2023/05/06 09:20:41;;;;;;;;;;;;;;;;;;4985767;28;92704;-60
2023/05/06 09:23:08;;;;;;;;;;;;;;;;;;4990467;28;89391;-66
2023/05/06 09:25:34;;;;;;;;;;;;;;;;;;4985801;28;90640;-63
2023/05/06 09:28:05;;;;;;;;;;;;;;;;;;4989069;28;89556;-62
2023/05/06 09:30:30;;;;;;;;;;;;;;;;;;4996326;28;89532;-62
2023/05/06 09:32:56;;;;;;;;;;;;;;;;;;4985275;28;91064;-62
2023/05/06 09:35:25;;;;;;;;;;;;;;;;;;4989291;28;90088;-63
2023/05/06 09:37:50;;;;;;;;;;;;;;;;;;4986294;28;89377;-63
2023/05/06 09:40:15;;;;;;;;;;;;;;;;;;4992433;28;89893;-61
2023/05/06 09:42:42;;;;;;;;;;;;;;;;;;4992129;28;89543;-62
2023/05/06 09:45:08;;;;;;;;;;;;;;;;;;4983921;28;91578;-62
2023/05/06 09:47:33;;;;;;;;;;;;;;;;;;4986303;28;90338;-62
2023/05/06 09:49:59;;;;;;;;;;;;;;;;;;4987203;28;89438;-64
2023/05/06 09:52:26;;;;;;;;;;;;;;;;;;4986298;28;91420;-61
2023/05/06 09:54:52;;;;;;;;;;;;;;;;;;4985798;28;89673;-62
2023/05/06 09:57:17;;;;;;;;;;;;;;;;;;4985415;28;89418;-60
2023/05/06 09:59:43;;;;;;;;;;;;;;;;;;4986133;28;89647;-64
2023/05/06 10:02:09;;;;;;;;;;;;;;;;;;4989290;28;89829;-62
2023/05/06 10:04:36;;;;;;;;;;;;;;;;;;4985634;28;89105;-61
2023/05/06 10:07:02;;;;;;;;;;;;;;;;;;4993110;28;89529;-62
2023/05/06 10:09:28;;;;;;;;;;;;;;;;;;4986833;28;90000;-60
2023/05/06 10:11:54;;;;;;;;;;;;;;;;;;4990649;28;89611;-63
2023/05/06 10:14:19;;;;;;;;;;;;;;;;;;4989370;28;89988;-61
2023/05/06 10:16:47;;;;;;;;;;;;;;;;;;4988013;28;89897;-60
2023/05/06 10:19:16;;;;;;;;;;;;;;;;;;4989230;28;89673;-60
2023/05/06 10:21:43;;;;;;;;;;;;;;;;;;4984900;28;89474;-61
2023/05/06 10:24:10;;;;;;;;;;;;;;;;;;4988569;28;89552;-60
2023/05/06 10:26:36;;;;;;;;;;;;;;;;;;4989367;28;90160;-61
2023/05/06 10:29:03;;;;;;;;;;;;;;;;;;4989790;28;89015;-61
2023/05/06 10:31:29;;;;;;;;;;;;;;;;;;4990686;28;89514;-61
2023/05/06 10:33:57;;;;;;;;;;;;;;;;;;4987260;28;90200;-60
2023/05/06 10:36:24;;;;;;;;;;;;;;;;;;4985932;28;90575;-63
2023/05/06 10:38:56;;;;;;;;;;;;;;;;;;4986714;28;89550;-59
2023/05/06 10:41:22;;;;;;;;;;;;;;;;;;5002012;28;90374;-59
2023/05/06 10:43:55;;;;;;;;;;;;;;;;;;4984085;28;90163;-59
2023/05/06 10:46:21;;;;;;;;;;;;;;;;;;4993067;28;89088;-59
2023/05/06 10:49:09;;;;;;;;;;;;;;;;;;4985703;28;89421;-59
2023/05/06 10:51:35;;;;;;;;;;;;;;;;;;4990162;28;91172;-60
2023/05/06 10:54:05;;;;;;;;;;;;;;;;;;4984751;28;90710;-60
2023/05/06 10:56:32;;;;;;;;;;;;;;;;;;4984624;28;89187;-64
2023/05/06 10:59:04;;;;;;;;;;;;;;;;;;4986733;28;89864;-60
2023/05/06 11:01:29;;;;;;;;;;;;;;;;;;4985609;28;89543;-60
2023/05/06 11:03:55;;;;;;;;;;;;;;;;;;4987217;28;90346;-61
2023/05/06 11:06:33;;;;;;;;;;;;;;;;;;5000214;28;90941;-62
2023/05/06 11:09:00;;;;;;;;;;;;;;;;;;4987455;28;89423;-61
2023/05/06 11:11:44;;;;;;;;;;;;;;;;;;4986281;28;89395;-60
2023/05/06 11:14:12;;;;;;;;;;;;;;;;;;4984222;28;91005;-62
2023/05/06 11:16:48;;;;;;;;;;;;;;;;;;4987303;28;90056;-59
2023/05/06 11:19:23;;;;;;;;;;;;;;;;;;4991782;28;91678;-59
2023/05/06 11:21:49;;;;;;;;;;;;;;;;;;4988202;28;90692;-59
2023/05/06 11:24:20;;;;;;;;;;;;;;;;;;4982609;28;90202;-61
2023/05/06 11:26:46;;;;;;;;;;;;;;;;;;4986982;28;89757;-59
2023/05/06 11:29:14;;;;;;;;;;;;;;;;;;4991968;28;89245;-59
2023/05/06 11:31:40;;;;;;;;;;;;;;;;;;4983657;28;89356;-64
2023/05/06 11:34:07;;;;;;;;;;;;;;;;;;4985276;28;89794;-59
2023/05/06 11:36:34;;;;;;;;;;;;;;;;;;4990464;28;89469;-62
2023/05/06 11:39:04;;;;;;;;;;;;;;;;;;4988819;28;90666;-59
2023/05/06 11:41:29;;;;;;;;;;;;;;;;;;4989324;28;90469;-62
2023/05/06 11:43:55;;;;;;;;;;;;;;;;;;4991093;28;90628;-61
2023/05/06 11:46:21;;;;;;;;;;;;;;;;;;5006408;28;90902;-61
2023/05/06 11:48:47;;;;;;;;;;;;;;;;;;4992145;28;89360;-62
2023/05/06 11:51:12;;;;;;;;;;;;;;;;;;4993909;28;89421;-61
2023/05/06 11:53:37;;;;;;;;;;;;;;;;;;4989258;28;90075;-61
2023/05/06 11:56:04;;;;;;;;;;;;;;;;;;4994208;28;89619;-59
2023/05/06 11:58:30;;;;;;;;;;;;;;;;;;4992990;28;90841;-61
2023/05/06 12:00:56;;;;;;;;;;;;;;;;;;4989343;28;90021;-58
2023/05/06 12:03:22;;;;;;;;;;;;;;;;;;4988208;28;89310;-59
2023/05/06 12:05:48;;;;;;;;;;;;;;;;;;4999400;28;89810;-63
2023/05/06 12:08:19;;;;;;;;;;;;;;;;;;4987821;28;89947;-61
2023/05/06 12:10:45;;;;;;;;;;;;;;;;;;4991021;28;90703;-63
2023/05/06 12:13:11;;;;;;;;;;;;;;;;;;4992617;28;90269;-62
2023/05/06 12:15:36;;;;;;;;;;;;;;;;;;4998228;28;89362;-64
2023/05/06 12:18:03;;;;;;;;;;;;;;;;;;4988334;28;90648;-59
2023/05/06 12:20:28;;;;;;;;;;;;;;;;;;4988493;28;90031;-60
2023/05/06 12:23:13;;;;;;;;;;;;;;;;;;4991889;28;89068;-63
2023/05/06 12:25:39;;;;;;;;;;;;;;;;;;4992730;28;89650;-59
2023/05/06 12:28:14;;;;;;;;;;;;;;;;;;4993403;28;90604;-63
2023/05/06 12:30:39;;;;;;;;;;;;;;;;;;4990407;28;89121;-59
2023/05/06 12:33:05;;;;;;;;;;;;;;;;;;4990383;28;90265;-59
2023/05/06 12:35:31;;;;;;;;;;;;;;;;;;4997013;28;89836;-63
2023/05/06 12:38:05;;;;;;;;;;;;;;;;;;4988284;28;91052;-61
2023/05/06 12:40:31;;;;;;;;;;;;;;;;;;4990147;28;89685;-63
2023/05/06 12:42:56;;;;;;;;;;;;;;;;;;4988609;28;89026;-64
2023/05/06 12:45:22;;;;;;;;;;;;;;;;;;4990080;28;89791;-59
2023/05/06 12:47:57;;;;;;;;;;;;;;;;;;4994641;28;89162;-63
2023/05/06 12:50:32;;;;;;;;;;;;;;;;;;4989165;28;90165;-59
2023/05/06 12:52:57;;;;;;;;;;;;;;;;;;4993212;28;90640;-62
2023/05/06 12:55:24;;;;;;;;;;;;;;;;;;4992283;28;90312;-60
2023/05/06 12:57:50;;;;;;;;;;;;;;;;;;4986434;28;89911;-63
2023/05/06 13:00:16;;;;;;;;;;;;;;;;;;4989509;28;89819;-60
2023/05/06 13:02:41;;;;;;;;;;;;;;;;;;4988783;28;89437;-60
2023/05/06 13:05:06;;;;;;;;;;;;;;;;;;4986551;28;91264;-60
2023/05/06 13:07:31;;;;;;;;;;;;;;;;;;4986350;28;90618;-62
2023/05/06 13:09:57;;;;;;;;;;;;;;;;;;4989598;28;89595;-60
2023/05/06 13:12:22;;;;;;;;;;;;;;;;;;4989662;28;90017;-58
2023/05/06 13:14:47;;;;;;;;;;;;;;;;;;4995134;28;89578;-58
2023/05/06 13:17:13;;;;;;;;;;;;;;;;;;5008948;28;89603;-59
2023/05/06 13:19:38;;;;;;;;;;;;;;;;;;4990494;28;90591;-60
2023/05/06 13:22:04;;;;;;;;;;;;;;;;;;4988069;28;89730;-61
2023/05/06 13:24:29;;;;;;;;;;;;;;;;;;4988472;28;90893;-60
2023/05/06 13:26:55;;;;;;;;;;;;;;;;;;4990238;28;89972;-60
2023/05/06 13:29:22;;;;;;;;;;;;;;;;;;4991846;28;89563;-60
2023/05/06 13:31:47;;;;;;;;;;;;;;;;;;4990500;28;89267;-62
2023/05/06 13:34:12;;;;;;;;;;;;;;;;;;4988846;28;89856;-62
2023/05/06 13:36:37;;;;;;;;;;;;;;;;;;4995960;28;89522;-59
2023/05/06 13:39:03;;;;;;;;;;;;;;;;;;4991796;28;90050;-59
2023/05/06 13:41:28;;;;;;;;;;;;;;;;;;4989581;28;89790;-62
2023/05/06 13:43:53;;;;;;;;;;;;;;;;;;4987893;28;89509;-61
2023/05/06 13:46:18;;;;;;;;;;;;;;;;;;4990164;28;89867;-62
2023/05/06 13:48:44;;;;;;;;;;;;;;;;;;4995812;28;89806;-62
2023/05/06 13:51:09;;;;;;;;;;;;;;;;;;4991083;28;90263;-59
2023/05/06 13:53:34;;;;;;;;;;;;;;;;;;4985945;28;89292;-61
2023/05/06 13:55:59;;;;;;;;;;;;;;;;;;4988232;28;89102;-60
2023/05/06 13:58:25;;;;;;;;;;;;;;;;;;4993513;28;89844;-61
2023/05/06 14:00:50;;;;;;;;;;;;;;;;;;4992664;28;90454;-66
2023/05/06 14:03:15;;;;;;;;;;;;;;;;;;4988073;28;89517;-60
2023/05/06 14:05:40;;;;;;;;;;;;;;;;;;4997126;28;89334;-59
2023/05/06 14:08:07;;;;;;;;;;;;;;;;;;4987128;28;89352;-62
2023/05/06 14:10:32;;;;;;;;;;;;;;;;;;4995783;28;89811;-62
2023/05/06 14:12:57;;;;;;;;;;;;;;;;;;4987738;28;90169;-59
2023/05/06 14:15:22;;;;;;;;;;;;;;;;;;4987193;28;90036;-59
2023/05/06 14:17:48;;;;;;;;;;;;;;;;;;4990801;28;90602;-63
2023/05/06 14:20:13;;;;;;;;;;;;;;;;;;4986152;28;89035;-61
2023/05/06 14:22:39;;;;;;;;;;;;;;;;;;4988927;28;89798;-59
2023/05/06 14:25:05;;;;;;;;;;;;;;;;;;4986927;28;89457;-60
2023/05/06 14:27:30;;;;;;;;;;;;;;;;;;4988894;28;89394;-60
2023/05/06 14:29:55;;;;;;;;;;;;;;;;;;4986929;28;91220;-61
2023/05/06 14:32:20;;;;;;;;;;;;;;;;;;4994757;28;89206;-60
2023/05/06 14:34:46;;;;;;;;;;;;;;;;;;4990412;28;89280;-62
2023/05/06 14:37:11;;;;;;;;;;;;;;;;;;4988430;28;90015;-59
2023/05/06 14:39:36;;;;;;;;;;;;;;;;;;4990229;28;89571;-60
2023/05/06 14:42:01;;;;;;;;;;;;;;;;;;4988623;28;89393;-61
2023/05/06 14:44:26;;;;;;;;;;;;;;;;;;4989364;28;89541;-61
2023/05/06 14:46:52;;;;;;;;;;;;;;;;;;5005548;28;90182;-61
2023/05/06 14:49:17;;;;;;;;;;;;;;;;;;5003716;28;92151;-61
2023/05/06 14:51:42;;;;;;;;;;;;;;;;;;4989255;28;91786;-60
2023/05/06 14:54:08;;;;;;;;;;;;;;;;;;4987694;28;89055;-59
2023/05/06 14:56:33;;;;;;;;;;;;;;;;;;4993850;28;89414;-60
2023/05/06 14:58:58;;;;;;;;;;;;;;;;;;4990068;28;89140;-61
2023/05/06 15:01:23;;;;;;;;;;;;;;;;;;4989696;28;89012;-64
2023/05/06 15:03:50;;;;;;;;;;;;;;;;;;4990807;28;90432;-62
2023/05/06 15:06:15;;;;;;;;;;;;;;;;;;4989404;28;90895;-64
2023/05/06 15:08:40;;;;;;;;;;;;;;;;;;4986641;28;90171;-60
2023/05/06 15:11:05;;;;;;;;;;;;;;;;;;4984060;28;90194;-60
2023/05/06 15:13:31;;;;;;;;;;;;;;;;;;4987997;28;89069;-59
2023/05/06 15:15:56;;;;;;;;;;;;;;;;;;4988903;28;89449;-61
2023/05/06 15:18:21;;;;;;;;;;;;;;;;;;4989226;28;89564;-59
2023/05/06 15:20:46;;;;;;;;;;;;;;;;;;4987652;28;89545;-63
2023/05/06 15:23:11;;;;;;;;;;;;;;;;;;4987973;28;90107;-59
2023/05/06 15:25:37;;;;;;;;;;;;;;;;;;4992422;28;89314;-62
2023/05/06 15:28:03;;;;;;;;;;;;;;;;;;4985683;28;90566;-61
2023/05/06 15:30:28;;;;;;;;;;;;;;;;;;5007591;28;90638;-59
2023/05/06 15:32:53;;;;;;;;;;;;;;;;;;4993261;28;88990;-59
2023/05/06 15:35:18;;;;;;;;;;;;;;;;;;4985035;28;90314;-59
2023/05/06 15:37:44;;;;;;;;;;;;;;;;;;4987636;28;89768;-59
2023/05/06 15:40:12;;;;;;;;;;;;;;;;;;4989215;28;90821;-60
2023/05/06 15:42:38;;;;;;;;;;;;;;;;;;5000458;28;92106;-64
2023/05/06 15:45:04;;;;;;;;;;;;;;;;;;4988309;28;89075;-64
2023/05/06 15:47:29;;;;;;;;;;;;;;;;;;4992922;28;89080;-60
2023/05/06 15:49:55;;;;;;;;;;;;;;;;;;4983388;28;89765;-62
2023/05/06 15:52:20;;;;;;;;;;;;;;;;;;4983680;28;89415;-65
2023/05/06 15:54:46;;;;;;;;;;;;;;;;;;4985427;28;90589;-59
2023/05/06 15:57:11;;;;;;;;;;;;;;;;;;4988295;28;90404;-58
2023/05/06 15:59:36;;;;;;;;;;;;;;;;;;4984288;28;89242;-64
2023/05/06 16:02:02;;;;;;;;;;;;;;;;;;4986021;28;90764;-63
2023/05/06 16:04:28;;;;;;;;;;;;;;;;;;4980186;28;90569;-65
2023/05/06 16:06:53;;;;;;;;;;;;;;;;;;4981578;28;90063;-65
2023/05/06 16:09:19;;;;;;;;;;;;;;;;;;4984358;28;90015;-64
2023/05/06 16:11:44;;;;;;;;;;;;;;;;;;4987914;28;90085;-60
2023/05/06 16:14:09;;;;;;;;;;;;;;;;;;4984689;28;90503;-63
2023/05/06 16:16:34;;;;;;;;;;;;;;;;;;4989930;28;89498;-65
2023/05/06 16:18:59;;;;;;;;;;;;;;;;;;4983415;28;89544;-63
2023/05/06 16:21:25;;;;;;;;;;;;;;;;;;4986460;28;89925;-62
2023/05/06 16:23:51;;;;;;;;;;;;;;;;;;4989578;28;89953;-63
2023/05/06 16:26:16;;;;;;;;;;;;;;;;;;4992287;28;89695;-64
2023/05/06 16:28:41;;;;;;;;;;;;;;;;;;4992249;28;89536;-68
2023/05/06 16:31:06;;;;;;;;;;;;;;;;;;4993346;28;90069;-65
2023/05/06 16:33:32;;;;;;;;;;;;;;;;;;4991407;28;89775;-66
2023/05/06 16:35:57;;;;;;;;;;;;;;;;;;4987765;28;90154;-66
2023/05/06 16:38:22;;;;;;;;;;;;;;;;;;4987822;28;90251;-63